sensor_id;sensor_type;location;lat;lon;timestamp;P1;durP1;ratioP1;P2;durP2;ratioP2
36651;SDS011;53334;51.976;20.144;2023-03-23T00:01:56;11.75;;;7.53;;
36651;SDS011;53334;51.976;20.144;2023-03-23T00:04:30;9.52;;;7.07;;
36651;SDS011;53334;51.976;20.144;2023-03-23T00:07:02;9.05;;;7.30;;
36651;SDS011;53334;51.976;20.144;2023-03-23T00:09:36;8.63;;;6.53;;
36651;SDS011;53334;51.976;20.144;2023-03-23T00:12:11;8.88;;;6.75;;
36651;SDS011;53334;51.976;20.144;2023-03-23T00:14:45;11.80;;;7.60;;
36651;SDS011;53334;51.976;20.144;2023-03-23T00:17:18;9.30;;;6.88;;
36651;SDS011;53334;51.976;20.144;2023-03-23T00:19:50;11.15;;;7.53;;
36651;SDS011;53334;51.976;20.144;2023-03-23T00:22:23;10.35;;;7.28;;
36651;SDS011;53334;51.976;20.144;2023-03-23T00:24:56;9.32;;;7.05;;
36651;SDS011;53334;51.976;20.144;2023-03-23T00:27:29;8.70;;;6.43;;
36651;SDS011;53334;51.976;20.144;2023-03-23T00:30:01;11.13;;;6.57;;
36651;SDS011;53334;51.976;20.144;2023-03-23T00:32:34;7.22;;;6.03;;
36651;SDS011;53334;51.976;20.144;2023-03-23T00:35:07;7.88;;;6.78;;
36651;SDS011;53334;51.976;20.144;2023-03-23T00:37:40;9.15;;;6.13;;
36651;SDS011;53334;51.976;20.144;2023-03-23T00:42:49;9.35;;;6.22;;
36651;SDS011;53334;51.976;20.144;2023-03-23T00:45:21;9.50;;;6.75;;
36651;SDS011;53334;51.976;20.144;2023-03-23T00:47:54;7.18;;;6.28;;
36651;SDS011;53334;51.976;20.144;2023-03-23T00:50:34;7.65;;;5.90;;
36651;SDS011;53334;51.976;20.144;2023-03-23T00:53:08;12.23;;;5.90;;
36651;SDS011;53334;51.976;20.144;2023-03-23T00:55:42;8.13;;;5.68;;
36651;SDS011;53334;51.976;20.144;2023-03-23T00:58:16;8.98;;;5.32;;
36651;SDS011;53334;51.976;20.144;2023-03-23T01:00:49;7.63;;;5.60;;
36651;SDS011;53334;51.976;20.144;2023-03-23T01:03:21;6.82;;;5.85;;
36651;SDS011;53334;51.976;20.144;2023-03-23T01:05:56;10.38;;;6.40;;
36651;SDS011;53334;51.976;20.144;2023-03-23T01:08:28;7.80;;;6.00;;
36651;SDS011;53334;51.976;20.144;2023-03-23T01:11:05;7.82;;;5.78;;
36651;SDS011;53334;51.976;20.144;2023-03-23T01:13:38;9.02;;;5.47;;
36651;SDS011;53334;51.976;20.144;2023-03-23T01:16:11;8.40;;;6.40;;
36651;SDS011;53334;51.976;20.144;2023-03-23T01:18:43;7.67;;;5.43;;
36651;SDS011;53334;51.976;20.144;2023-03-23T01:21:16;8.52;;;5.90;;
36651;SDS011;53334;51.976;20.144;2023-03-23T01:23:50;9.20;;;5.60;;
36651;SDS011;53334;51.976;20.144;2023-03-23T01:26:25;9.20;;;5.82;;
36651;SDS011;53334;51.976;20.144;2023-03-23T01:28:58;7.80;;;5.93;;
36651;SDS011;53334;51.976;20.144;2023-03-23T01:31:31;7.97;;;5.35;;
36651;SDS011;53334;51.976;20.144;2023-03-23T01:34:07;7.28;;;5.20;;
36651;SDS011;53334;51.976;20.144;2023-03-23T01:36:41;6.53;;;5.43;;
36651;SDS011;53334;51.976;20.144;2023-03-23T01:39:14;10.02;;;5.47;;
36651;SDS011;53334;51.976;20.144;2023-03-23T01:41:49;9.73;;;5.40;;
36651;SDS011;53334;51.976;20.144;2023-03-23T01:47:35;8.20;;;5.13;;
36651;SDS011;53334;51.976;20.144;2023-03-23T01:50:10;6.70;;;5.05;;
36651;SDS011;53334;51.976;20.144;2023-03-23T01:52:44;6.85;;;5.20;;
36651;SDS011;53334;51.976;20.144;2023-03-23T01:55:17;7.82;;;5.35;;
36651;SDS011;53334;51.976;20.144;2023-03-23T02:00:27;9.40;;;5.38;;
36651;SDS011;53334;51.976;20.144;2023-03-23T02:03:00;8.18;;;5.00;;
36651;SDS011;53334;51.976;20.144;2023-03-23T02:05:37;6.82;;;4.40;;
36651;SDS011;53334;51.976;20.144;2023-03-23T02:08:24;6.38;;;4.68;;
36651;SDS011;53334;51.976;20.144;2023-03-23T02:10:59;8.85;;;5.40;;
36651;SDS011;53334;51.976;20.144;2023-03-23T02:13:34;6.63;;;4.65;;
36651;SDS011;53334;51.976;20.144;2023-03-23T02:16:07;7.65;;;5.50;;
36651;SDS011;53334;51.976;20.144;2023-03-23T02:18:51;9.32;;;5.32;;
36651;SDS011;53334;51.976;20.144;2023-03-23T02:24:55;8.80;;;5.45;;
36651;SDS011;53334;51.976;20.144;2023-03-23T02:27:43;8.77;;;5.97;;
36651;SDS011;53334;51.976;20.144;2023-03-23T02:30:45;6.95;;;4.60;;
36651;SDS011;53334;51.976;20.144;2023-03-23T02:36:22;8.52;;;5.13;;
36651;SDS011;53334;51.976;20.144;2023-03-23T02:39:00;11.38;;;5.30;;
36651;SDS011;53334;51.976;20.144;2023-03-23T02:41:37;8.82;;;4.97;;
36651;SDS011;53334;51.976;20.144;2023-03-23T02:44:15;9.18;;;5.07;;
36651;SDS011;53334;51.976;20.144;2023-03-23T02:46:50;9.27;;;4.75;;
36651;SDS011;53334;51.976;20.144;2023-03-23T02:49:26;8.95;;;4.65;;
36651;SDS011;53334;51.976;20.144;2023-03-23T02:52:02;10.55;;;4.72;;
36651;SDS011;53334;51.976;20.144;2023-03-23T02:54:42;8.98;;;5.13;;
36651;SDS011;53334;51.976;20.144;2023-03-23T02:57:17;6.43;;;4.10;;
36651;SDS011;53334;51.976;20.144;2023-03-23T02:59:50;9.82;;;5.00;;
36651;SDS011;53334;51.976;20.144;2023-03-23T03:02:22;7.40;;;4.55;;
36651;SDS011;53334;51.976;20.144;2023-03-23T03:05:00;9.00;;;4.72;;
36651;SDS011;53334;51.976;20.144;2023-03-23T03:07:45;8.43;;;4.45;;
36651;SDS011;53334;51.976;20.144;2023-03-23T03:10:24;7.65;;;4.35;;
36651;SDS011;53334;51.976;20.144;2023-03-23T03:13:02;7.43;;;3.88;;
36651;SDS011;53334;51.976;20.144;2023-03-23T03:15:40;12.02;;;4.82;;
36651;SDS011;53334;51.976;20.144;2023-03-23T03:18:18;7.68;;;4.57;;
36651;SDS011;53334;51.976;20.144;2023-03-23T03:20:55;6.20;;;4.70;;
36651;SDS011;53334;51.976;20.144;2023-03-23T03:23:33;5.78;;;3.95;;
36651;SDS011;53334;51.976;20.144;2023-03-23T03:26:10;11.77;;;4.35;;
36651;SDS011;53334;51.976;20.144;2023-03-23T03:28:53;11.73;;;4.43;;
36651;SDS011;53334;51.976;20.144;2023-03-23T03:31:28;7.85;;;5.20;;
36651;SDS011;53334;51.976;20.144;2023-03-23T03:34:03;8.40;;;4.45;;
36651;SDS011;53334;51.976;20.144;2023-03-23T03:36:41;8.60;;;4.35;;
36651;SDS011;53334;51.976;20.144;2023-03-23T03:39:14;8.68;;;4.28;;
36651;SDS011;53334;51.976;20.144;2023-03-23T03:41:48;7.28;;;4.68;;
36651;SDS011;53334;51.976;20.144;2023-03-23T03:44:20;8.75;;;4.65;;
36651;SDS011;53334;51.976;20.144;2023-03-23T03:46:52;5.40;;;3.92;;
36651;SDS011;53334;51.976;20.144;2023-03-23T03:49:25;6.60;;;3.90;;
36651;SDS011;53334;51.976;20.144;2023-03-23T03:54:42;4.45;;;3.53;;
36651;SDS011;53334;51.976;20.144;2023-03-23T03:57:15;8.48;;;3.90;;
36651;SDS011;53334;51.976;20.144;2023-03-23T04:00:06;7.93;;;4.07;;
36651;SDS011;53334;51.976;20.144;2023-03-23T04:02:46;8.82;;;3.90;;
36651;SDS011;53334;51.976;20.144;2023-03-23T04:05:28;5.80;;;3.67;;
36651;SDS011;53334;51.976;20.144;2023-03-23T04:08:02;5.85;;;3.53;;
36651;SDS011;53334;51.976;20.144;2023-03-23T04:10:36;5.32;;;3.75;;
36651;SDS011;53334;51.976;20.144;2023-03-23T04:13:11;5.90;;;3.88;;
36651;SDS011;53334;51.976;20.144;2023-03-23T04:16:09;8.68;;;3.38;;
36651;SDS011;53334;51.976;20.144;2023-03-23T04:18:43;5.38;;;3.60;;
36651;SDS011;53334;51.976;20.144;2023-03-23T04:21:18;8.75;;;4.10;;
36651;SDS011;53334;51.976;20.144;2023-03-23T04:23:55;7.35;;;3.47;;
36651;SDS011;53334;51.976;20.144;2023-03-23T04:26:30;9.05;;;4.68;;
36651;SDS011;53334;51.976;20.144;2023-03-23T04:29:09;7.82;;;4.07;;
36651;SDS011;53334;51.976;20.144;2023-03-23T04:32:03;5.00;;;3.60;;
36651;SDS011;53334;51.976;20.144;2023-03-23T04:34:42;10.10;;;4.20;;
36651;SDS011;53334;51.976;20.144;2023-03-23T04:37:15;6.10;;;3.40;;
36651;SDS011;53334;51.976;20.144;2023-03-23T04:39:49;6.28;;;4.47;;
36651;SDS011;53334;51.976;20.144;2023-03-23T04:42:30;8.10;;;3.70;;
36651;SDS011;53334;51.976;20.144;2023-03-23T04:45:28;6.75;;;4.03;;
36651;SDS011;53334;51.976;20.144;2023-03-23T04:48:04;6.32;;;4.05;;
36651;SDS011;53334;51.976;20.144;2023-03-23T04:50:45;6.20;;;3.70;;
36651;SDS011;53334;51.976;20.144;2023-03-23T04:53:27;7.28;;;3.80;;
36651;SDS011;53334;51.976;20.144;2023-03-23T04:56:01;6.65;;;3.50;;
36651;SDS011;53334;51.976;20.144;2023-03-23T04:58:40;7.30;;;4.07;;
36651;SDS011;53334;51.976;20.144;2023-03-23T05:01:37;7.47;;;3.88;;
36651;SDS011;53334;51.976;20.144;2023-03-23T05:04:19;8.02;;;3.17;;
36651;SDS011;53334;51.976;20.144;2023-03-23T05:07:13;9.50;;;4.25;;
36651;SDS011;53334;51.976;20.144;2023-03-23T05:09:49;6.90;;;3.30;;
36651;SDS011;53334;51.976;20.144;2023-03-23T05:12:27;7.07;;;3.53;;
36651;SDS011;53334;51.976;20.144;2023-03-23T05:15:06;5.32;;;3.78;;
36651;SDS011;53334;51.976;20.144;2023-03-23T05:20:18;6.75;;;3.28;;
36651;SDS011;53334;51.976;20.144;2023-03-23T05:22:57;9.30;;;3.67;;
36651;SDS011;53334;51.976;20.144;2023-03-23T05:25:37;6.75;;;2.90;;
36651;SDS011;53334;51.976;20.144;2023-03-23T05:28:30;7.13;;;2.92;;
36651;SDS011;53334;51.976;20.144;2023-03-23T05:31:17;6.32;;;3.30;;
36651;SDS011;53334;51.976;20.144;2023-03-23T05:33:49;4.25;;;2.85;;
36651;SDS011;53334;51.976;20.144;2023-03-23T05:36:35;5.05;;;3.20;;
36651;SDS011;53334;51.976;20.144;2023-03-23T05:39:10;5.47;;;3.00;;
36651;SDS011;53334;51.976;20.144;2023-03-23T05:42:23;4.50;;;3.08;;
36651;SDS011;53334;51.976;20.144;2023-03-23T05:45:18;4.30;;;2.58;;
36651;SDS011;53334;51.976;20.144;2023-03-23T05:47:54;4.55;;;3.38;;
36651;SDS011;53334;51.976;20.144;2023-03-23T05:50:29;6.30;;;2.63;;
36651;SDS011;53334;51.976;20.144;2023-03-23T05:53:02;7.50;;;2.88;;
36651;SDS011;53334;51.976;20.144;2023-03-23T05:55:37;4.15;;;2.63;;
36651;SDS011;53334;51.976;20.144;2023-03-23T05:58:25;5.80;;;3.58;;
36651;SDS011;53334;51.976;20.144;2023-03-23T06:00:59;6.57;;;2.75;;
36651;SDS011;53334;51.976;20.144;2023-03-23T06:03:34;6.63;;;3.38;;
36651;SDS011;53334;51.976;20.144;2023-03-23T06:06:17;4.38;;;3.08;;
36651;SDS011;53334;51.976;20.144;2023-03-23T06:09:01;4.22;;;3.03;;
36651;SDS011;53334;51.976;20.144;2023-03-23T06:11:50;6.35;;;3.03;;
36651;SDS011;53334;51.976;20.144;2023-03-23T06:14:40;3.42;;;2.35;;
36651;SDS011;53334;51.976;20.144;2023-03-23T06:17:15;4.60;;;2.97;;
36651;SDS011;53334;51.976;20.144;2023-03-23T06:19:50;5.68;;;2.92;;
36651;SDS011;53334;51.976;20.144;2023-03-23T06:22:23;16.00;;;3.77;;
36651;SDS011;53334;51.976;20.144;2023-03-23T06:25:18;6.10;;;3.50;;
36651;SDS011;53334;51.976;20.144;2023-03-23T06:27:52;5.13;;;3.70;;
36651;SDS011;53334;51.976;20.144;2023-03-23T06:30:25;5.65;;;3.10;;
36651;SDS011;53334;51.976;20.144;2023-03-23T06:33:02;7.93;;;3.95;;
36651;SDS011;53334;51.976;20.144;2023-03-23T06:35:54;6.38;;;2.92;;
36651;SDS011;53334;51.976;20.144;2023-03-23T06:38:49;7.07;;;3.53;;
36651;SDS011;53334;51.976;20.144;2023-03-23T06:41:27;9.60;;;3.35;;
36651;SDS011;53334;51.976;20.144;2023-03-23T06:43:59;7.72;;;4.00;;
36651;SDS011;53334;51.976;20.144;2023-03-23T06:46:34;7.72;;;3.58;;
36651;SDS011;53334;51.976;20.144;2023-03-23T06:49:28;12.23;;;4.60;;
36651;SDS011;53334;51.976;20.144;2023-03-23T06:52:17;7.72;;;3.80;;
36651;SDS011;53334;51.976;20.144;2023-03-23T06:54:50;5.53;;;3.60;;
36651;SDS011;53334;51.976;20.144;2023-03-23T06:57:24;7.80;;;4.03;;
36651;SDS011;53334;51.976;20.144;2023-03-23T06:59:56;8.80;;;3.50;;
36651;SDS011;53334;51.976;20.144;2023-03-23T07:02:29;4.60;;;3.45;;
36651;SDS011;53334;51.976;20.144;2023-03-23T07:05:04;7.95;;;4.15;;
36651;SDS011;53334;51.976;20.144;2023-03-23T07:07:38;7.72;;;4.65;;
36651;SDS011;53334;51.976;20.144;2023-03-23T07:10:24;11.82;;;4.80;;
36651;SDS011;53334;51.976;20.144;2023-03-23T07:12:56;8.32;;;4.60;;
36651;SDS011;53334;51.976;20.144;2023-03-23T07:15:30;9.73;;;4.78;;
36651;SDS011;53334;51.976;20.144;2023-03-23T07:18:03;8.57;;;4.38;;
36651;SDS011;53334;51.976;20.144;2023-03-23T07:20:42;7.28;;;3.58;;
36651;SDS011;53334;51.976;20.144;2023-03-23T07:23:19;8.82;;;4.60;;
36651;SDS011;53334;51.976;20.144;2023-03-23T07:25:58;6.53;;;3.45;;
36651;SDS011;53334;51.976;20.144;2023-03-23T07:28:39;6.85;;;4.20;;
36651;SDS011;53334;51.976;20.144;2023-03-23T07:31:27;8.13;;;4.00;;
36651;SDS011;53334;51.976;20.144;2023-03-23T07:34:00;5.95;;;3.85;;
36651;SDS011;53334;51.976;20.144;2023-03-23T07:36:44;7.65;;;3.58;;
36651;SDS011;53334;51.976;20.144;2023-03-23T07:39:18;12.23;;;3.88;;
36651;SDS011;53334;51.976;20.144;2023-03-23T07:41:57;5.53;;;3.80;;
36651;SDS011;53334;51.976;20.144;2023-03-23T07:44:40;6.70;;;3.58;;
36651;SDS011;53334;51.976;20.144;2023-03-23T07:47:16;5.95;;;3.42;;
36651;SDS011;53334;51.976;20.144;2023-03-23T07:49:52;10.63;;;4.20;;
36651;SDS011;53334;51.976;20.144;2023-03-23T07:52:42;7.43;;;3.92;;
36651;SDS011;53334;51.976;20.144;2023-03-23T07:58:11;4.25;;;3.13;;
36651;SDS011;53334;51.976;20.144;2023-03-23T08:00:48;7.28;;;3.78;;
36651;SDS011;53334;51.976;20.144;2023-03-23T08:03:23;9.55;;;3.53;;
36651;SDS011;53334;51.976;20.144;2023-03-23T08:06:15;6.07;;;3.88;;
36651;SDS011;53334;51.976;20.144;2023-03-23T08:08:56;9.68;;;3.63;;
36651;SDS011;53334;51.976;20.144;2023-03-23T08:11:48;12.73;;;3.20;;
36651;SDS011;53334;51.976;20.144;2023-03-23T08:14:40;10.23;;;4.10;;
36651;SDS011;53334;51.976;20.144;2023-03-23T08:17:32;7.13;;;3.90;;
36651;SDS011;53334;51.976;20.144;2023-03-23T08:20:31;6.43;;;3.22;;
36651;SDS011;53334;51.976;20.144;2023-03-23T08:23:36;13.35;;;4.75;;
36651;SDS011;53334;51.976;20.144;2023-03-23T08:26:30;10.95;;;4.97;;
36651;SDS011;53334;51.976;20.144;2023-03-23T08:29:20;15.02;;;5.18;;
36651;SDS011;53334;51.976;20.144;2023-03-23T08:31:52;8.63;;;6.30;;
36651;SDS011;53334;51.976;20.144;2023-03-23T08:34:35;12.30;;;6.50;;
36651;SDS011;53334;51.976;20.144;2023-03-23T08:37:08;9.40;;;6.00;;
36651;SDS011;53334;51.976;20.144;2023-03-23T08:39:59;9.75;;;6.32;;
36651;SDS011;53334;51.976;20.144;2023-03-23T08:42:57;12.77;;;7.63;;
36651;SDS011;53334;51.976;20.144;2023-03-23T08:46:02;9.55;;;5.75;;
36651;SDS011;53334;51.976;20.144;2023-03-23T08:48:59;10.68;;;5.55;;
36651;SDS011;53334;51.976;20.144;2023-03-23T08:51:37;10.60;;;6.70;;
36651;SDS011;53334;51.976;20.144;2023-03-23T08:54:37;9.40;;;6.28;;
36651;SDS011;53334;51.976;20.144;2023-03-23T08:57:48;12.25;;;6.68;;
36651;SDS011;53334;51.976;20.144;2023-03-23T09:00:48;10.10;;;6.25;;
36651;SDS011;53334;51.976;20.144;2023-03-23T09:03:32;9.93;;;5.68;;
36651;SDS011;53334;51.976;20.144;2023-03-23T09:06:32;15.52;;;6.35;;
36651;SDS011;53334;51.976;20.144;2023-03-23T09:09:05;9.40;;;5.30;;
36651;SDS011;53334;51.976;20.144;2023-03-23T09:11:39;15.10;;;6.50;;
36651;SDS011;53334;51.976;20.144;2023-03-23T09:14:11;15.52;;;6.40;;
36651;SDS011;53334;51.976;20.144;2023-03-23T09:16:45;12.52;;;5.53;;
36651;SDS011;53334;51.976;20.144;2023-03-23T09:19:17;9.00;;;6.72;;
36651;SDS011;53334;51.976;20.144;2023-03-23T09:21:50;14.90;;;7.37;;
36651;SDS011;53334;51.976;20.144;2023-03-23T09:24:22;12.48;;;6.40;;
36651;SDS011;53334;51.976;20.144;2023-03-23T09:26:55;9.93;;;6.20;;
36651;SDS011;53334;51.976;20.144;2023-03-23T09:29:28;10.75;;;6.93;;
36651;SDS011;53334;51.976;20.144;2023-03-23T09:32:02;16.40;;;6.15;;
36651;SDS011;53334;51.976;20.144;2023-03-23T09:34:34;11.48;;;7.60;;
36651;SDS011;53334;51.976;20.144;2023-03-23T09:37:09;11.95;;;6.55;;
36651;SDS011;53334;51.976;20.144;2023-03-23T09:39:44;8.07;;;6.35;;
36651;SDS011;53334;51.976;20.144;2023-03-23T09:42:19;9.32;;;6.57;;
36651;SDS011;53334;51.976;20.144;2023-03-23T09:45:06;9.38;;;5.82;;
36651;SDS011;53334;51.976;20.144;2023-03-23T09:47:49;9.20;;;5.97;;
36651;SDS011;53334;51.976;20.144;2023-03-23T09:50:32;9.73;;;6.43;;
36651;SDS011;53334;51.976;20.144;2023-03-23T09:53:08;19.70;;;8.88;;
36651;SDS011;53334;51.976;20.144;2023-03-23T09:55:46;9.23;;;7.97;;
36651;SDS011;53334;51.976;20.144;2023-03-23T09:58:20;15.97;;;7.90;;
36651;SDS011;53334;51.976;20.144;2023-03-23T10:01:00;14.38;;;7.63;;
36651;SDS011;53334;51.976;20.144;2023-03-23T10:03:39;12.18;;;6.80;;
36651;SDS011;53334;51.976;20.144;2023-03-23T10:06:13;15.15;;;6.13;;
36651;SDS011;53334;51.976;20.144;2023-03-23T10:08:49;9.63;;;6.18;;
36651;SDS011;53334;51.976;20.144;2023-03-23T10:11:28;9.27;;;5.90;;
36651;SDS011;53334;51.976;20.144;2023-03-23T10:14:26;8.55;;;4.82;;
36651;SDS011;53334;51.976;20.144;2023-03-23T10:17:09;10.02;;;5.60;;
36651;SDS011;53334;51.976;20.144;2023-03-23T10:19:55;7.63;;;5.38;;
36651;SDS011;53334;51.976;20.144;2023-03-23T10:22:39;7.57;;;4.70;;
36651;SDS011;53334;51.976;20.144;2023-03-23T10:25:18;5.85;;;4.28;;
36651;SDS011;53334;51.976;20.144;2023-03-23T10:27:55;6.93;;;4.70;;
36651;SDS011;53334;51.976;20.144;2023-03-23T10:30:34;6.68;;;4.07;;
36651;SDS011;53334;51.976;20.144;2023-03-23T10:33:13;5.85;;;4.32;;
36651;SDS011;53334;51.976;20.144;2023-03-23T10:35:50;6.32;;;4.07;;
36651;SDS011;53334;51.976;20.144;2023-03-23T10:38:27;5.47;;;3.92;;
36651;SDS011;53334;51.976;20.144;2023-03-23T10:41:04;4.72;;;3.60;;
36651;SDS011;53334;51.976;20.144;2023-03-23T10:43:46;11.18;;;4.50;;
36651;SDS011;53334;51.976;20.144;2023-03-23T10:46:26;6.82;;;3.90;;
36651;SDS011;53334;51.976;20.144;2023-03-23T10:49:18;5.90;;;4.25;;
36651;SDS011;53334;51.976;20.144;2023-03-23T10:51:59;7.90;;;4.10;;
36651;SDS011;53334;51.976;20.144;2023-03-23T10:54:36;10.23;;;3.38;;
36651;SDS011;53334;51.976;20.144;2023-03-23T10:57:20;6.32;;;3.50;;
36651;SDS011;53334;51.976;20.144;2023-03-23T10:59:58;4.57;;;3.70;;
36651;SDS011;53334;51.976;20.144;2023-03-23T11:02:37;4.65;;;3.50;;
36651;SDS011;53334;51.976;20.144;2023-03-23T11:05:16;5.35;;;3.22;;
36651;SDS011;53334;51.976;20.144;2023-03-23T11:07:53;13.98;;;3.67;;
36651;SDS011;53334;51.976;20.144;2023-03-23T11:10:28;7.13;;;3.47;;
36651;SDS011;53334;51.976;20.144;2023-03-23T11:13:10;5.75;;;3.33;;
36651;SDS011;53334;51.976;20.144;2023-03-23T11:15:46;10.73;;;3.40;;
36651;SDS011;53334;51.976;20.144;2023-03-23T11:18:20;11.35;;;3.85;;
36651;SDS011;53334;51.976;20.144;2023-03-23T11:20:56;12.98;;;3.95;;
36651;SDS011;53334;51.976;20.144;2023-03-23T11:23:32;7.57;;;3.40;;
36651;SDS011;53334;51.976;20.144;2023-03-23T11:26:08;9.88;;;4.18;;
36651;SDS011;53334;51.976;20.144;2023-03-23T11:28:47;9.48;;;4.32;;
36651;SDS011;53334;51.976;20.144;2023-03-23T11:31:28;9.32;;;3.90;;
36651;SDS011;53334;51.976;20.144;2023-03-23T11:34:04;7.80;;;4.30;;
36651;SDS011;53334;51.976;20.144;2023-03-23T11:36:42;9.95;;;3.13;;
36651;SDS011;53334;51.976;20.144;2023-03-23T11:39:21;8.27;;;4.05;;
36651;SDS011;53334;51.976;20.144;2023-03-23T11:41:57;7.60;;;4.25;;
36651;SDS011;53334;51.976;20.144;2023-03-23T11:44:31;6.43;;;3.78;;
36651;SDS011;53334;51.976;20.144;2023-03-23T11:47:08;5.53;;;4.10;;
36651;SDS011;53334;51.976;20.144;2023-03-23T11:49:52;7.50;;;3.85;;
36651;SDS011;53334;51.976;20.144;2023-03-23T11:52:32;8.52;;;3.20;;
36651;SDS011;53334;51.976;20.144;2023-03-23T11:55:13;8.95;;;3.63;;
36651;SDS011;53334;51.976;20.144;2023-03-23T11:57:48;4.45;;;3.10;;
36651;SDS011;53334;51.976;20.144;2023-03-23T12:00:21;5.40;;;3.00;;
36651;SDS011;53334;51.976;20.144;2023-03-23T12:02:56;6.28;;;3.47;;
36651;SDS011;53334;51.976;20.144;2023-03-23T12:05:56;5.70;;;3.15;;
36651;SDS011;53334;51.976;20.144;2023-03-23T12:08:43;5.18;;;3.05;;
36651;SDS011;53334;51.976;20.144;2023-03-23T12:11:26;4.80;;;3.00;;
36651;SDS011;53334;51.976;20.144;2023-03-23T12:14:07;4.55;;;3.55;;
36651;SDS011;53334;51.976;20.144;2023-03-23T12:16:53;6.07;;;3.15;;
36651;SDS011;53334;51.976;20.144;2023-03-23T12:19:37;5.97;;;2.80;;
36651;SDS011;53334;51.976;20.144;2023-03-23T12:22:18;5.35;;;2.80;;
36651;SDS011;53334;51.976;20.144;2023-03-23T12:25:04;5.55;;;2.60;;
36651;SDS011;53334;51.976;20.144;2023-03-23T12:27:51;4.20;;;2.38;;
36651;SDS011;53334;51.976;20.144;2023-03-23T12:30:32;7.57;;;3.53;;
36651;SDS011;53334;51.976;20.144;2023-03-23T12:33:16;3.38;;;2.35;;
36651;SDS011;53334;51.976;20.144;2023-03-23T12:35:57;4.75;;;2.92;;
36651;SDS011;53334;51.976;20.144;2023-03-23T12:38:42;6.85;;;3.33;;
36651;SDS011;53334;51.976;20.144;2023-03-23T12:41:24;6.45;;;3.10;;
36651;SDS011;53334;51.976;20.144;2023-03-23T12:44:02;7.82;;;2.83;;
36651;SDS011;53334;51.976;20.144;2023-03-23T12:46:46;7.32;;;3.05;;
36651;SDS011;53334;51.976;20.144;2023-03-23T12:49:34;8.18;;;2.47;;
36651;SDS011;53334;51.976;20.144;2023-03-23T12:52:11;6.22;;;2.30;;
36651;SDS011;53334;51.976;20.144;2023-03-23T12:54:49;14.88;;;2.92;;
36651;SDS011;53334;51.976;20.144;2023-03-23T12:57:25;5.35;;;3.45;;
36651;SDS011;53334;51.976;20.144;2023-03-23T13:00:06;13.45;;;2.75;;
36651;SDS011;53334;51.976;20.144;2023-03-23T13:02:47;15.32;;;3.78;;
36651;SDS011;53334;51.976;20.144;2023-03-23T13:08:25;8.80;;;3.20;;
36651;SDS011;53334;51.976;20.144;2023-03-23T13:11:03;16.63;;;3.55;;
36651;SDS011;53334;51.976;20.144;2023-03-23T13:13:41;7.75;;;3.15;;
36651;SDS011;53334;51.976;20.144;2023-03-23T13:16:25;10.48;;;3.45;;
36651;SDS011;53334;51.976;20.144;2023-03-23T13:19:06;9.77;;;3.17;;
36651;SDS011;53334;51.976;20.144;2023-03-23T13:21:45;6.32;;;3.33;;
36651;SDS011;53334;51.976;20.144;2023-03-23T13:24:23;7.03;;;3.17;;
36651;SDS011;53334;51.976;20.144;2023-03-23T13:26:59;7.68;;;3.88;;
36651;SDS011;53334;51.976;20.144;2023-03-23T13:29:32;9.55;;;3.60;;
36651;SDS011;53334;51.976;20.144;2023-03-23T13:32:09;7.53;;;2.45;;
36651;SDS011;53334;51.976;20.144;2023-03-23T13:34:43;11.32;;;3.50;;
36651;SDS011;53334;51.976;20.144;2023-03-23T13:37:28;12.43;;;3.40;;
36651;SDS011;53334;51.976;20.144;2023-03-23T13:40:14;9.15;;;3.60;;
36651;SDS011;53334;51.976;20.144;2023-03-23T13:43:00;23.75;;;2.83;;
36651;SDS011;53334;51.976;20.144;2023-03-23T13:45:44;8.57;;;2.90;;
36651;SDS011;53334;51.976;20.144;2023-03-23T13:48:24;6.35;;;3.17;;
36651;SDS011;53334;51.976;20.144;2023-03-23T13:50:59;7.85;;;3.00;;
36651;SDS011;53334;51.976;20.144;2023-03-23T13:53:43;10.93;;;3.55;;
36651;SDS011;53334;51.976;20.144;2023-03-23T13:56:21;10.07;;;2.58;;
36651;SDS011;53334;51.976;20.144;2023-03-23T14:05:11;7.28;;;2.80;;
36651;SDS011;53334;51.976;20.144;2023-03-23T14:08:01;4.15;;;2.95;;
36651;SDS011;53334;51.976;20.144;2023-03-23T14:10:42;4.10;;;3.00;;
36651;SDS011;53334;51.976;20.144;2023-03-23T14:13:20;5.05;;;2.88;;
36651;SDS011;53334;51.976;20.144;2023-03-23T14:15:56;3.80;;;2.53;;
36651;SDS011;53334;51.976;20.144;2023-03-23T14:18:32;7.47;;;3.33;;
36651;SDS011;53334;51.976;20.144;2023-03-23T14:21:13;5.45;;;2.60;;
36651;SDS011;53334;51.976;20.144;2023-03-23T14:23:46;6.30;;;2.97;;
36651;SDS011;53334;51.976;20.144;2023-03-23T14:26:20;3.55;;;2.30;;
36651;SDS011;53334;51.976;20.144;2023-03-23T14:28:52;9.20;;;2.40;;
36651;SDS011;53334;51.976;20.144;2023-03-23T14:31:25;3.55;;;2.55;;
36651;SDS011;53334;51.976;20.144;2023-03-23T14:34:01;8.02;;;3.13;;
36651;SDS011;53334;51.976;20.144;2023-03-23T14:36:37;4.72;;;3.20;;
36651;SDS011;53334;51.976;20.144;2023-03-23T14:39:17;3.50;;;2.65;;
36651;SDS011;53334;51.976;20.144;2023-03-23T14:41:53;6.05;;;2.88;;
36651;SDS011;53334;51.976;20.144;2023-03-23T14:44:27;7.63;;;2.85;;
36651;SDS011;53334;51.976;20.144;2023-03-23T14:47:02;8.35;;;2.80;;
36651;SDS011;53334;51.976;20.144;2023-03-23T14:49:37;4.90;;;2.75;;
36651;SDS011;53334;51.976;20.144;2023-03-23T14:52:15;4.00;;;2.35;;
36651;SDS011;53334;51.976;20.144;2023-03-23T14:54:51;5.15;;;2.75;;
36651;SDS011;53334;51.976;20.144;2023-03-23T14:57:34;7.97;;;3.60;;
36651;SDS011;53334;51.976;20.144;2023-03-23T15:00:11;5.30;;;3.60;;
36651;SDS011;53334;51.976;20.144;2023-03-23T15:02:46;6.22;;;2.95;;
36651;SDS011;53334;51.976;20.144;2023-03-23T15:05:25;8.10;;;3.47;;
36651;SDS011;53334;51.976;20.144;2023-03-23T15:08:05;3.30;;;2.15;;
36651;SDS011;53334;51.976;20.144;2023-03-23T15:10:48;8.52;;;3.03;;
36651;SDS011;53334;51.976;20.144;2023-03-23T15:13:28;5.65;;;3.03;;
36651;SDS011;53334;51.976;20.144;2023-03-23T15:16:04;6.03;;;3.05;;
36651;SDS011;53334;51.976;20.144;2023-03-23T15:18:49;4.95;;;3.00;;
36651;SDS011;53334;51.976;20.144;2023-03-23T15:21:27;5.30;;;3.30;;
36651;SDS011;53334;51.976;20.144;2023-03-23T15:24:19;3.85;;;2.40;;
36651;SDS011;53334;51.976;20.144;2023-03-23T15:27:03;3.97;;;2.50;;
36651;SDS011;53334;51.976;20.144;2023-03-23T15:29:59;6.05;;;2.55;;
36651;SDS011;53334;51.976;20.144;2023-03-23T15:32:45;9.48;;;2.83;;
36651;SDS011;53334;51.976;20.144;2023-03-23T15:35:32;5.72;;;2.85;;
36651;SDS011;53334;51.976;20.144;2023-03-23T15:38:16;3.00;;;1.95;;
36651;SDS011;53334;51.976;20.144;2023-03-23T15:41:01;7.22;;;2.90;;
36651;SDS011;53334;51.976;20.144;2023-03-23T15:43:36;3.30;;;2.33;;
36651;SDS011;53334;51.976;20.144;2023-03-23T15:46:23;6.90;;;3.38;;
36651;SDS011;53334;51.976;20.144;2023-03-23T15:49:07;3.72;;;2.30;;
36651;SDS011;53334;51.976;20.144;2023-03-23T15:51:44;6.85;;;2.22;;
36651;SDS011;53334;51.976;20.144;2023-03-23T15:54:16;6.05;;;2.70;;
36651;SDS011;53334;51.976;20.144;2023-03-23T15:56:53;3.13;;;2.30;;
36651;SDS011;53334;51.976;20.144;2023-03-23T15:59:28;10.57;;;2.53;;
36651;SDS011;53334;51.976;20.144;2023-03-23T16:02:10;3.35;;;2.63;;
36651;SDS011;53334;51.976;20.144;2023-03-23T16:04:52;3.95;;;2.40;;
36651;SDS011;53334;51.976;20.144;2023-03-23T16:07:28;4.40;;;2.20;;
36651;SDS011;53334;51.976;20.144;2023-03-23T16:10:13;6.68;;;2.97;;
36651;SDS011;53334;51.976;20.144;2023-03-23T16:12:50;5.95;;;2.70;;
36651;SDS011;53334;51.976;20.144;2023-03-23T16:15:26;5.20;;;2.60;;
36651;SDS011;53334;51.976;20.144;2023-03-23T16:18:02;5.95;;;3.05;;